createdAt,value
2023-02-12T00:01:36.185Z,19.13
2023-02-12T00:04:05.970Z,19.80
2023-02-12T00:06:35.844Z,17.47
2023-02-12T00:09:05.798Z,21.47
2023-02-12T00:11:35.616Z,14.93
2023-02-12T00:14:06.042Z,26.80
2023-02-12T00:16:38.890Z,22.60
2023-02-12T00:19:08.795Z,17.63
2023-02-12T00:21:38.975Z,13.30
2023-02-12T00:24:09.387Z,20.73
2023-02-12T00:26:39.358Z,18.20
2023-02-12T00:29:09.632Z,21.93
2023-02-12T00:31:42.609Z,17.33
2023-02-12T00:34:14.097Z,16.53
2023-02-12T00:36:44.066Z,17.50
2023-02-12T00:39:13.984Z,16.67
2023-02-12T00:41:43.741Z,21.73
2023-02-12T00:44:13.494Z,17.00
2023-02-12T00:46:45.903Z,14.17
2023-02-12T00:49:16.082Z,24.43
2023-02-12T00:51:45.836Z,23.30
2023-02-12T00:54:15.725Z,21.03
2023-02-12T00:56:45.452Z,21.00
2023-02-12T00:59:15.089Z,15.73
2023-02-12T01:01:47.451Z,25.30
2023-02-12T01:04:18.489Z,14.23
2023-02-12T01:06:48.337Z,13.70
2023-02-12T01:09:18.352Z,19.47
2023-02-12T01:11:48.042Z,18.73
2023-02-12T01:14:19.041Z,19.03
2023-02-12T01:16:51.394Z,19.03
2023-02-12T01:19:22.079Z,21.47
2023-02-12T01:21:53.021Z,25.33
2023-02-12T01:24:22.720Z,18.00
2023-02-12T01:26:52.409Z,14.43
2023-02-12T01:29:22.119Z,20.20
2023-02-12T01:31:54.625Z,19.20
2023-02-12T01:34:24.600Z,15.07
2023-02-12T01:36:55.341Z,21.37
2023-02-12T01:39:25.085Z,17.70
2023-02-12T01:41:54.762Z,24.83
2023-02-12T01:44:26.443Z,27.33
2023-02-12T01:47:02.205Z,25.83
2023-02-12T01:49:36.472Z,17.80
2023-02-12T01:52:11.596Z,30.67
2023-02-12T01:54:42.073Z,25.47
2023-02-12T01:57:14.970Z,27.70
2023-02-12T01:59:46.509Z,46.00
2023-02-12T02:02:19.368Z,27.33
2023-02-12T02:04:54.710Z,27.73
2023-02-12T02:07:24.382Z,32.07
2023-02-12T02:09:54.809Z,27.93
2023-02-12T02:12:37.257Z,30.13
2023-02-12T02:15:09.030Z,24.60
2023-02-12T02:17:53.019Z,31.00
2023-02-12T02:21:07.456Z,22.77
2023-02-12T02:23:59.427Z,24.60
2023-02-12T02:27:02.833Z,31.80
2023-02-12T02:29:49.031Z,29.70
2023-02-12T02:32:26.506Z,32.17
2023-02-12T02:35:04.607Z,28.23
2023-02-12T02:37:37.990Z,31.73
2023-02-12T02:40:14.639Z,34.93
2023-02-12T02:42:49.546Z,30.50
2023-02-12T02:45:23.729Z,26.83
2023-02-12T02:48:01.094Z,32.03
2023-02-12T02:50:34.328Z,30.27
2023-02-12T02:53:07.381Z,31.63
2023-02-12T02:55:43.676Z,39.60
2023-02-12T02:58:17.433Z,42.97
2023-02-12T03:00:51.088Z,35.60
2023-02-12T03:03:28.786Z,31.80
2023-02-12T03:06:05.586Z,30.00
2023-02-12T03:08:41.093Z,32.10
2023-02-12T03:11:15.623Z,35.67
2023-02-12T03:13:50.931Z,32.50
2023-02-12T03:16:26.074Z,33.87
2023-02-12T03:19:04.007Z,36.27
2023-02-12T03:21:42.857Z,32.20
2023-02-12T03:24:18.111Z,38.80
2023-02-12T03:26:53.568Z,34.93
2023-02-12T03:29:23.247Z,35.73
2023-02-12T03:32:05.894Z,34.20
2023-02-12T03:34:50.169Z,36.27
2023-02-12T03:37:25.173Z,32.20
2023-02-12T03:39:59.456Z,39.50
2023-02-12T03:42:37.267Z,34.57
2023-02-12T03:45:13.169Z,30.63
2023-02-12T03:47:48.957Z,35.30
2023-02-12T03:50:27.751Z,39.23
2023-02-12T03:52:57.480Z,43.60
2023-02-12T03:55:27.521Z,42.90
2023-02-12T03:58:02.548Z,32.00
2023-02-12T04:00:33.011Z,47.10
2023-02-12T04:03:03.420Z,34.20
2023-02-12T04:05:35.847Z,40.73
2023-02-12T04:08:11.819Z,31.87
2023-02-12T04:10:49.917Z,49.77
2023-02-12T04:13:26.612Z,42.93
2023-02-12T04:16:15.485Z,44.17
2023-02-12T04:18:49.529Z,39.03
2023-02-12T04:21:38.849Z,39.17
2023-02-12T04:24:16.451Z,36.07
2023-02-12T04:26:52.886Z,42.57
2023-02-12T04:29:32.366Z,38.43
2023-02-12T04:32:09.668Z,41.87
2023-02-12T04:34:48.112Z,36.60
2023-02-12T04:37:25.179Z,38.47
2023-02-12T04:39:56.291Z,34.23
2023-02-12T04:42:26.087Z,39.20
2023-02-12T04:44:56.025Z,42.67
2023-02-12T04:47:25.651Z,38.27
2023-02-12T04:49:55.376Z,38.13
2023-02-12T04:52:27.644Z,43.50
2023-02-12T04:54:57.376Z,50.47
2023-02-12T04:57:27.056Z,46.20
2023-02-12T04:59:56.797Z,45.37
2023-02-12T05:02:26.596Z,55.23
2023-02-12T05:04:56.453Z,63.57
2023-02-12T05:07:29.301Z,52.70
2023-02-12T05:09:59.066Z,65.53
2023-02-12T05:12:28.775Z,58.40
2023-02-12T05:14:58.399Z,52.40
2023-02-12T05:17:28.251Z,59.23
2023-02-12T05:19:57.892Z,56.27
2023-02-12T05:22:30.295Z,66.87
2023-02-12T05:24:59.954Z,62.03
2023-02-12T05:27:29.668Z,61.87
2023-02-12T05:29:59.550Z,59.33
2023-02-12T05:32:29.265Z,68.33
2023-02-12T05:34:58.990Z,67.73
2023-02-12T05:37:31.617Z,60.67
2023-02-12T05:40:01.283Z,72.00
2023-02-12T05:42:32.446Z,70.47
2023-02-12T05:45:02.153Z,66.20
2023-02-12T05:47:31.917Z,62.83
2023-02-12T05:50:01.569Z,64.07
2023-02-12T05:52:33.910Z,65.73
2023-02-12T05:55:03.557Z,54.80
2023-02-12T05:57:33.245Z,70.20
2023-02-12T06:00:02.941Z,73.33
2023-02-12T06:02:41.899Z,71.13
2023-02-12T06:05:11.597Z,64.33
2023-02-12T06:07:43.888Z,65.33
2023-02-12T06:10:14.329Z,75.20
2023-02-12T06:12:44.096Z,70.87
2023-02-12T06:15:13.796Z,60.93
2023-02-12T06:17:43.460Z,58.37
2023-02-12T06:20:13.617Z,71.97
2023-02-12T06:22:45.867Z,68.43
2023-02-12T06:25:15.507Z,67.60
2023-02-12T06:27:45.187Z,69.43
2023-02-12T06:30:16.398Z,64.53
2023-02-12T06:32:46.032Z,70.00
2023-02-12T06:35:15.734Z,67.13
2023-02-12T06:37:48.067Z,72.87
2023-02-12T06:40:18.143Z,66.70
2023-02-12T06:42:49.581Z,75.07
2023-02-12T06:45:20.243Z,75.30
2023-02-12T06:47:50.070Z,72.47
2023-02-12T06:50:20.032Z,67.57
2023-02-12T06:52:52.333Z,67.67
2023-02-12T06:55:22.176Z,58.70
2023-02-12T06:57:51.936Z,70.67
2023-02-12T07:00:23.086Z,69.23
2023-02-12T07:02:56.787Z,62.20
2023-02-12T07:05:27.419Z,57.27
2023-02-12T07:07:59.621Z,66.30
2023-02-12T07:10:29.331Z,54.70
2023-02-12T07:12:59.108Z,67.57
2023-02-12T07:15:28.970Z,52.10
2023-02-12T07:17:58.701Z,58.23
2023-02-12T07:20:28.411Z,62.93
2023-02-12T07:23:00.803Z,64.13
2023-02-12T07:25:30.676Z,66.73
2023-02-12T07:28:00.489Z,56.23
2023-02-12T07:30:30.379Z,59.37
2023-02-12T07:33:00.197Z,54.53
2023-02-12T07:35:29.993Z,64.80
2023-02-12T07:38:02.319Z,49.97
2023-02-12T07:40:32.000Z,68.73
2023-02-12T07:43:01.648Z,60.53
2023-02-12T07:45:31.364Z,61.13
2023-02-12T07:48:01.059Z,55.33
2023-02-12T07:50:30.842Z,51.60
2023-02-12T07:53:03.187Z,60.07
2023-02-12T07:55:32.865Z,53.07
2023-02-12T07:58:02.476Z,52.10
2023-02-12T08:00:32.185Z,45.70
2023-02-12T08:03:01.911Z,51.70
2023-02-12T08:05:31.591Z,55.40
2023-02-12T08:08:03.894Z,61.93
2023-02-12T08:10:33.546Z,55.17
2023-02-12T08:13:03.245Z,60.00
2023-02-12T08:15:32.923Z,66.03
2023-02-12T08:18:02.839Z,61.33
2023-02-12T08:20:32.632Z,62.30
2023-02-12T08:23:04.959Z,64.73
2023-02-12T08:25:34.720Z,69.17
2023-02-12T08:28:04.590Z,65.03
2023-02-12T08:30:34.332Z,64.90
2023-02-12T08:33:04.009Z,58.97
2023-02-12T08:35:33.768Z,55.13
2023-02-12T08:38:06.078Z,59.47
2023-02-12T08:40:36.460Z,58.10
2023-02-12T08:43:06.169Z,59.70
2023-02-12T08:45:36.137Z,60.63
2023-02-12T08:48:06.038Z,60.70
2023-02-12T08:50:37.307Z,66.13
2023-02-12T08:53:10.203Z,63.23
2023-02-12T08:55:39.991Z,61.53
2023-02-12T08:58:09.780Z,61.37
2023-02-12T09:00:40.521Z,60.90
2023-02-12T09:03:10.525Z,65.60
2023-02-12T09:05:41.930Z,66.90
2023-02-12T09:08:14.358Z,63.67
2023-02-12T09:10:44.935Z,61.30
2023-02-12T09:13:16.228Z,60.13
2023-02-12T09:15:47.985Z,56.00
2023-02-12T09:18:18.136Z,63.60
2023-02-12T09:20:47.985Z,57.70
2023-02-12T09:23:20.418Z,62.83
2023-02-12T09:25:50.173Z,53.77
2023-02-12T09:28:20.040Z,57.57
2023-02-12T09:30:49.923Z,52.73
2023-02-12T09:33:20.053Z,58.57
2023-02-12T09:35:49.711Z,60.07
2023-02-12T09:38:22.016Z,55.90
2023-02-12T09:41:09.606Z,63.10
2023-02-12T09:43:46.913Z,57.20
2023-02-12T09:46:24.018Z,56.10
2023-02-12T09:49:03.454Z,54.20
2023-02-12T09:51:34.307Z,58.57
2023-02-12T09:54:10.224Z,55.07
2023-02-12T09:56:43.164Z,51.43
2023-02-12T09:59:21.092Z,55.00
2023-02-12T10:01:50.927Z,45.17
2023-02-12T10:04:20.926Z,50.33
2023-02-12T10:07:00.285Z,47.90
2023-02-12T10:09:47.291Z,51.73
2023-02-12T10:12:27.097Z,51.53
2023-02-12T10:15:12.825Z,53.07
2023-02-12T10:17:46.517Z,56.27
2023-02-12T10:20:41.809Z,59.03
2023-02-12T10:23:26.440Z,51.87
2023-02-12T10:26:00.905Z,51.40
2023-02-12T10:28:35.789Z,54.30
2023-02-12T10:31:09.985Z,52.67
2023-02-12T10:33:44.009Z,67.20
2023-02-12T10:36:21.617Z,60.13
2023-02-12T10:38:55.951Z,50.70
2023-02-12T10:41:31.065Z,68.63
2023-02-12T10:44:00.802Z,48.20
2023-02-12T10:46:33.216Z,45.87
2023-02-12T10:49:03.456Z,53.20
2023-02-12T10:51:59.159Z,116.43
2023-02-12T10:54:37.697Z,62.50
2023-02-12T10:57:15.992Z,48.70
2023-02-12T10:59:46.742Z,45.10
2023-02-12T11:02:25.454Z,50.73
2023-02-12T11:04:56.543Z,52.57
2023-02-12T11:07:27.550Z,46.77
2023-02-12T11:09:59.325Z,45.73
2023-02-12T11:12:39.732Z,51.03
2023-02-12T11:15:17.913Z,48.67
2023-02-12T11:17:59.498Z,45.20
2023-02-12T11:20:31.601Z,42.87
2023-02-12T11:23:03.280Z,42.97
2023-02-12T11:25:34.651Z,43.90
2023-02-12T11:28:18.310Z,39.57
2023-02-12T11:30:57.802Z,39.17
2023-02-12T11:33:33.604Z,38.67
2023-02-12T11:36:08.339Z,41.30
2023-02-12T11:38:41.921Z,37.13
2023-02-12T11:41:28.550Z,35.50
2023-02-12T11:44:01.291Z,37.23
2023-02-12T11:46:31.694Z,40.53
2023-02-12T11:49:02.022Z,33.60
2023-02-12T11:51:34.158Z,38.87
2023-02-12T11:54:06.469Z,41.30
2023-02-12T11:56:47.881Z,35.00
2023-02-12T11:59:32.990Z,39.70
2023-02-12T12:02:08.874Z,35.30
2023-02-12T12:04:40.479Z,33.37
2023-02-12T12:07:16.781Z,37.10
2023-02-12T12:09:51.044Z,30.03
2023-02-12T12:12:26.618Z,30.40
2023-02-12T12:15:15.777Z,36.10
2023-02-12T12:18:04.074Z,30.43
2023-02-12T12:20:39.498Z,33.00
2023-02-12T12:23:18.302Z,27.43
2023-02-12T12:25:52.273Z,24.23
2023-02-12T12:28:33.198Z,22.40
2023-02-12T12:31:10.838Z,21.50
2023-02-12T12:33:45.960Z,22.53
2023-02-12T12:36:43.674Z,21.10
2023-02-12T12:39:29.706Z,23.70
2023-02-12T12:42:21.490Z,19.97
2023-02-12T12:45:06.034Z,17.27
2023-02-12T12:47:49.118Z,18.70
2023-02-12T12:50:38.490Z,18.37
2023-02-12T12:53:25.521Z,17.87
2023-02-12T12:56:15.849Z,16.50
2023-02-12T12:59:02.977Z,13.50
2023-02-12T13:01:55.909Z,14.87
2023-02-12T13:04:56.692Z,19.37
2023-02-12T13:07:45.790Z,15.83
2023-02-12T13:10:28.764Z,17.10
2023-02-12T13:13:06.216Z,19.60
2023-02-12T13:15:42.016Z,16.20
2023-02-12T13:18:26.040Z,13.77
2023-02-12T13:21:05.580Z,13.20
2023-02-12T13:23:42.544Z,15.50
2023-02-12T13:26:19.810Z,13.60
2023-02-12T13:28:54.501Z,15.00
2023-02-12T13:31:35.464Z,14.17
2023-02-12T13:34:09.842Z,14.30
2023-02-12T13:36:44.324Z,13.53
2023-02-12T13:39:26.544Z,13.63
2023-02-12T13:42:06.706Z,10.47
2023-02-12T13:44:44.697Z,14.10
2023-02-12T13:47:23.659Z,11.57
2023-02-12T13:49:57.580Z,11.03
2023-02-12T13:52:39.648Z,11.30
2023-02-12T13:55:25.898Z,10.30
2023-02-12T13:58:28.040Z,12.30
2023-02-12T14:01:01.162Z,9.40
2023-02-12T14:03:32.622Z,9.80
2023-02-12T14:06:17.843Z,11.50
2023-02-12T14:08:55.165Z,9.60
2023-02-12T14:11:28.920Z,10.10
2023-02-12T14:14:01.462Z,10.13
2023-02-12T14:16:43.525Z,8.60
2023-02-12T14:19:56.843Z,12.90
2023-02-12T14:22:56.614Z,12.20
2023-02-12T14:25:48.631Z,10.73
2023-02-12T14:28:27.090Z,9.63
2023-02-12T14:31:25.071Z,9.90
2023-02-12T14:34:16.238Z,13.90
2023-02-12T14:36:49.222Z,10.20
2023-02-12T14:39:36.544Z,12.07
2023-02-12T14:42:50.745Z,9.57
2023-02-12T14:45:34.840Z,10.27
2023-02-12T14:48:05.704Z,12.30
2023-02-12T14:50:45.843Z,11.13
2023-02-12T14:53:31.881Z,12.63
2023-02-12T14:56:02.720Z,18.87
2023-02-12T14:58:33.524Z,9.50
2023-02-12T15:01:08.527Z,8.80
2023-02-12T15:03:44.623Z,8.23
2023-02-12T15:06:19.091Z,7.73
2023-02-12T15:08:55.514Z,7.83
2023-02-12T15:11:32.664Z,9.40
2023-02-12T15:14:06.195Z,6.03
2023-02-12T15:16:50.823Z,8.37
2023-02-12T15:19:41.663Z,7.67
2023-02-12T15:22:27.106Z,8.43
2023-02-12T15:24:56.855Z,10.50
2023-02-12T15:27:27.140Z,11.00
2023-02-12T15:29:57.140Z,11.90
2023-02-12T15:32:32.551Z,9.13
2023-02-12T15:35:02.309Z,8.00
2023-02-12T15:37:33.829Z,8.30
2023-02-12T15:40:08.794Z,11.10
2023-02-12T15:42:42.817Z,8.90
2023-02-12T15:45:23.626Z,9.00
2023-02-12T15:48:14.737Z,8.97
2023-02-12T15:50:56.714Z,6.90
2023-02-12T15:53:30.354Z,13.53
2023-02-12T15:56:01.633Z,10.83
2023-02-12T15:58:33.339Z,6.67
2023-02-12T16:01:05.088Z,8.70
2023-02-12T16:03:39.461Z,8.60
2023-02-12T16:06:14.006Z,8.80
2023-02-12T16:08:46.754Z,8.70
2023-02-12T16:11:20.213Z,10.07
2023-02-12T16:13:52.146Z,10.73
2023-02-12T16:16:26.652Z,10.77
2023-02-12T16:19:21.120Z,15.87
2023-02-12T16:21:54.657Z,11.83
2023-02-12T16:24:34.641Z,10.40
2023-02-12T16:27:11.566Z,12.73
2023-02-12T16:29:47.508Z,14.97
2023-02-12T16:32:31.340Z,16.80
2023-02-12T16:35:07.494Z,15.23
2023-02-12T16:37:47.393Z,20.47
2023-02-12T16:40:29.949Z,21.40
2023-02-12T16:43:03.293Z,16.87
2023-02-12T16:45:44.725Z,18.43
2023-02-12T16:48:23.523Z,16.27
2023-02-12T16:50:58.201Z,18.53
2023-02-12T16:53:43.906Z,16.60
2023-02-12T16:56:18.475Z,13.87
2023-02-12T16:58:50.836Z,15.20
2023-02-12T17:01:24.656Z,12.90
2023-02-12T17:03:55.883Z,12.60
2023-02-12T17:06:31.881Z,10.33
2023-02-12T17:09:02.044Z,15.70
2023-02-12T17:11:31.963Z,12.00
2023-02-12T17:14:01.849Z,11.40
2023-02-12T17:16:32.507Z,10.20
2023-02-12T18:57:35.028Z,17.90
2023-02-12T19:04:48.132Z,16.00
2023-02-12T19:08:39.253Z,25.70
2023-02-12T19:20:44.434Z,21.93
2023-02-12T20:08:13.849Z,17.90
2023-02-12T20:14:33.260Z,22.00
2023-02-12T20:17:51.133Z,27.03
2023-02-12T20:21:00.739Z,32.80
2023-02-12T20:24:08.899Z,27.07
2023-02-12T20:27:19.000Z,28.90
2023-02-12T20:33:45.375Z,24.37
2023-02-12T20:37:23.867Z,29.37
2023-02-12T20:40:48.188Z,28.27
2023-02-12T20:43:40.623Z,26.40
2023-02-12T20:46:57.144Z,34.27
2023-02-12T20:50:25.115Z,26.63
2023-02-12T20:53:23.479Z,29.30
2023-02-12T20:56:37.835Z,28.23
2023-02-12T20:59:27.218Z,24.50
2023-02-12T21:06:10.319Z,24.77
2023-02-12T21:08:55.753Z,23.57
2023-02-12T21:11:53.654Z,25.77
2023-02-12T21:15:07.014Z,23.37
2023-02-12T21:17:57.186Z,27.33
2023-02-12T21:20:43.722Z,29.43
2023-02-12T21:23:25.568Z,24.30
2023-02-12T21:26:35.236Z,27.53
2023-02-12T21:29:36.116Z,22.57
2023-02-12T21:32:43.227Z,27.90
2023-02-12T21:35:57.235Z,22.50
2023-02-12T21:39:05.954Z,24.20
2023-02-12T22:00:26.276Z,24.47
2023-02-12T22:02:56.209Z,24.43
2023-02-12T22:05:26.142Z,23.77
2023-02-12T22:07:55.977Z,24.47
2023-02-12T22:10:26.036Z,23.33
2023-02-12T22:12:56.090Z,21.40
2023-02-12T22:15:28.749Z,24.90
2023-02-12T22:17:58.676Z,22.43
2023-02-12T22:20:28.470Z,26.73
2023-02-12T22:22:58.334Z,26.33
2023-02-12T22:25:28.336Z,24.63
2023-02-12T22:27:58.159Z,25.93
2023-02-12T22:30:30.778Z,25.23
2023-02-12T22:33:00.734Z,23.73
2023-02-12T22:35:32.011Z,26.97
2023-02-12T22:38:01.990Z,28.47
2023-02-12T22:40:32.120Z,25.37
2023-02-12T22:43:03.237Z,29.27
2023-02-12T22:45:35.844Z,30.03
2023-02-12T22:48:06.214Z,29.67
2023-02-12T22:50:37.049Z,26.40
2023-02-12T22:53:07.272Z,26.07
2023-02-12T22:55:39.031Z,23.20
2023-02-12T22:58:08.860Z,27.70
2023-02-12T23:00:42.569Z,24.30
2023-02-12T23:03:12.737Z,27.80
2023-02-12T23:05:43.002Z,26.80
2023-02-12T23:08:13.244Z,23.37
2023-02-12T23:10:43.367Z,26.30
2023-02-12T23:13:24.629Z,27.80
2023-02-12T23:16:01.566Z,26.40
2023-02-12T23:18:31.631Z,25.23
2023-02-12T23:21:01.998Z,29.40
2023-02-12T23:23:31.995Z,29.07
2023-02-12T23:26:02.008Z,26.67
2023-02-12T23:28:32.541Z,28.93
2023-02-12T23:31:05.256Z,26.00
2023-02-12T23:33:35.272Z,27.87
2023-02-12T23:36:05.243Z,28.43
2023-02-12T23:38:35.283Z,27.60
2023-02-12T23:41:05.305Z,27.67
2023-02-12T23:43:35.580Z,28.50
2023-02-12T23:46:09.498Z,24.20
2023-02-12T23:48:39.486Z,25.33
2023-02-12T23:51:10.309Z,21.57
2023-02-12T23:53:40.255Z,23.70
2023-02-12T23:56:10.674Z,24.27
2023-02-12T23:58:40.629Z,23.93
